Time;durP1;ratioP1;P1;durP2;ratioP2;P2;SDS_P1;SDS_P2;PMS_P1;PMS_P2;Temp;Humidity;BMP_temperature;BMP_pressure;BME280_temperature;BME280_humidity;BME280_pressure;Samples;Min_cycle;Max_cycle;Signal;HPM_P1;HPM_P2
2022/07/26 00:01:00;;;;;;;0.80;0.80;;;26.70;63.40;;;;;;5084226;27;43980;-70
2022/07/26 00:03:28;;;;;;;0.98;0.98;;;26.70;62.90;;;;;;5083628;27;43620;-70
2022/07/26 00:05:57;;;;;;;0.90;0.90;;;26.80;62.90;;;;;;5083256;27;43384;-69
2022/07/26 00:08:25;;;;;;;1.10;1.10;;;26.80;62.50;;;;;;5065229;27;44030;-69
2022/07/26 00:10:53;;;;;;;1.00;1.00;;;26.80;62.70;;;;;;5090214;27;43968;-70
2022/07/26 00:13:21;;;;;;;0.80;0.80;;;26.60;63.00;;;;;;5089676;27;43957;-70
2022/07/26 00:15:49;;;;;;;1.00;1.00;;;26.40;63.50;;;;;;5089817;27;43983;-70
2022/07/26 00:18:18;;;;;;;0.98;0.98;;;26.20;64.00;;;;;;5089937;27;43942;-70
2022/07/26 00:20:47;;;;;;;1.00;1.00;;;26.00;64.70;;;;;;5071532;27;44123;-70
2022/07/26 00:23:18;;;;;;;0.90;0.90;;;25.90;65.30;;;;;;5089490;27;44024;-70
2022/07/26 00:25:46;;;;;;;1.00;1.00;;;25.70;65.50;;;;;;5089546;27;43273;-69
2022/07/26 00:28:14;;;;;;;1.00;1.00;;;25.60;65.80;;;;;;5097093;27;43976;-69
2022/07/26 00:30:42;;;;;;;1.00;1.00;;;25.50;66.00;;;;;;5109532;27;43944;-69
2022/07/26 00:33:10;;;;;;;0.90;0.90;;;25.50;66.20;;;;;;5109079;27;43962;-69
2022/07/26 00:35:38;;;;;;;1.10;1.10;;;25.40;66.40;;;;;;5108951;27;44141;-69
2022/07/26 00:38:06;;;;;;;0.90;0.90;;;25.40;66.90;;;;;;5090490;27;43413;-70
2022/07/26 00:40:36;;;;;;;1.10;1.10;;;25.30;67.30;;;;;;5109242;27;43989;-70
2022/07/26 00:43:04;;;;;;;1.10;1.10;;;25.40;67.50;;;;;;5108744;27;45140;-70
2022/07/26 00:45:33;;;;;;;0.95;0.95;;;25.50;67.20;;;;;;5108691;27;43939;-69
2022/07/26 00:48:01;;;;;;;1.00;1.00;;;25.60;66.70;;;;;;5109125;27;44047;-69
2022/07/26 00:50:29;;;;;;;0.80;0.80;;;25.70;66.20;;;;;;5109532;27;43951;-70
2022/07/26 00:52:57;;;;;;;1.00;1.00;;;25.90;65.60;;;;;;5108113;27;43949;-70
2022/07/26 00:55:25;;;;;;;0.98;0.98;;;26.10;65.00;;;;;;5108632;27;43483;-70
2022/07/26 00:57:54;;;;;;;0.80;0.80;;;26.30;64.50;;;;;;5108719;27;44066;-70
2022/07/26 01:00:25;;;;;;;0.80;0.80;;;26.40;64.00;;;;;;5101448;27;43952;-69
2022/07/26 01:02:53;;;;;;;0.80;0.80;;;26.50;63.60;;;;;;5088966;27;44711;-70
2022/07/26 01:05:21;;;;;;;3.72;0.95;;;26.60;63.30;;;;;;5089009;27;44130;-70
2022/07/26 01:07:49;;;;;;;0.93;0.93;;;26.70;63.00;;;;;;5089088;27;43959;-69
2022/07/26 01:10:17;;;;;;;0.90;0.90;;;26.80;62.90;;;;;;5089074;27;43594;-71
2022/07/26 01:12:45;;;;;;;0.93;0.93;;;26.80;62.70;;;;;;5088778;27;43915;-69
2022/07/26 01:15:15;;;;;;;0.90;0.90;;;26.80;62.60;;;;;;5088910;27;44271;-70
2022/07/26 01:17:43;;;;;;;1.10;1.10;;;26.60;62.70;;;;;;5086200;27;44049;-70
2022/07/26 01:20:12;;;;;;;1.02;1.02;;;26.50;63.30;;;;;;5108927;27;43902;-70
2022/07/26 01:22:41;;;;;;;1.00;1.00;;;26.30;63.80;;;;;;5108038;27;44959;-70
2022/07/26 01:25:09;;;;;;;1.10;1.10;;;26.10;64.30;;;;;;5089632;27;43910;-69
2022/07/26 01:27:39;;;;;;;1.00;1.00;;;25.90;65.10;;;;;;5108581;27;43455;-70
2022/07/26 01:30:09;;;;;;;0.90;0.90;;;25.80;65.40;;;;;;5089975;27;44009;-70
2022/07/26 01:32:37;;;;;;;1.00;1.00;;;25.70;65.70;;;;;;5108103;27;44042;-70
2022/07/26 01:35:07;;;;;;;0.93;0.93;;;25.50;65.90;;;;;;5108073;27;44041;-70
2022/07/26 01:37:35;;;;;;;1.00;1.00;;;25.50;66.20;;;;;;5104787;27;43944;-70
2022/07/26 01:40:05;;;;;;;0.90;0.90;;;25.40;66.20;;;;;;5089096;27;43982;-70
2022/07/26 01:42:34;;;;;;;1.00;1.00;;;25.40;66.40;;;;;;5088015;27;44027;-70
2022/07/26 01:45:02;;;;;;;0.98;0.98;;;25.30;66.70;;;;;;5088675;27;43964;-69
2022/07/26 01:47:30;;;;;;;0.98;0.98;;;25.30;67.20;;;;;;5088679;27;43936;-70
2022/07/26 01:49:58;;;;;;;1.00;1.00;;;25.30;67.40;;;;;;5088816;27;43996;-70
2022/07/26 01:52:27;;;;;;;1.02;1.02;;;25.40;67.30;;;;;;5088045;27;44039;-70
2022/07/26 01:54:55;;;;;;;1.10;1.10;;;25.50;66.90;;;;;;5088379;27;43947;-70
2022/07/26 01:57:24;;;;;;;0.95;0.95;;;25.60;66.40;;;;;;5088331;27;43992;-71
2022/07/26 01:59:54;;;;;;;0.80;0.80;;;25.80;65.90;;;;;;5088591;27;43415;-71
2022/07/26 02:02:22;;;;;;;1.00;1.00;;;26.00;65.30;;;;;;5087973;27;43759;-69
2022/07/26 02:04:59;;;;;;;0.90;0.90;;;26.10;64.60;;;;;;5087010;27;44052;-71
2022/07/26 02:07:27;;;;;;;1.00;1.00;;;26.30;64.10;;;;;;5088127;27;43921;-70
2022/07/26 02:09:55;;;;;;;0.90;0.90;;;26.40;63.70;;;;;;5069879;28;43561;-70
2022/07/26 02:12:26;;;;;;;1.00;0.98;;;26.50;63.30;;;;;;5087801;27;45076;-71
2022/07/26 02:14:54;;;;;;;1.17;1.17;;;26.60;63.10;;;;;;5087854;27;43888;-69
2022/07/26 02:17:22;;;;;;;0.90;0.90;;;26.70;62.90;;;;;;5087901;27;43926;-70
2022/07/26 02:19:51;;;;;;;0.80;0.80;;;26.70;62.70;;;;;;5089299;27;43982;-70
2022/07/26 02:22:19;;;;;;;1.05;1.05;;;26.70;62.50;;;;;;5107112;27;44063;-70
2022/07/26 02:24:47;;;;;;;0.80;0.80;;;26.70;62.50;;;;;;5107389;27;43817;-70
2022/07/26 02:27:15;;;;;;;0.98;0.98;;;26.50;63.00;;;;;;5107398;27;43970;-70
2022/07/26 02:29:44;;;;;;;1.00;1.00;;;26.30;63.50;;;;;;5107726;27;43447;-71
2022/07/26 02:32:12;;;;;;;1.00;1.00;;;26.10;64.00;;;;;;5080788;27;43958;-69
2022/07/26 02:34:40;;;;;;;1.00;1.00;;;25.90;64.60;;;;;;5080168;27;43920;-70
2022/07/26 02:37:08;;;;;;;1.15;1.15;;;25.80;65.20;;;;;;5080694;27;44033;-69
2022/07/26 02:39:36;;;;;;;1.02;1.02;;;25.70;65.60;;;;;;5081310;27;43957;-70
2022/07/26 02:42:04;;;;;;;0.95;0.95;;;25.60;65.90;;;;;;5080224;27;44011;-70
2022/07/26 02:44:33;;;;;;;0.77;0.77;;;25.50;66.00;;;;;;5080903;27;43961;-69
2022/07/26 02:47:04;;;;;;;1.00;1.00;;;25.40;66.20;;;;;;5081615;27;43300;-70
2022/07/26 02:49:32;;;;;;;1.10;1.10;;;25.30;66.30;;;;;;5069502;27;44165;-70
2022/07/26 02:52:00;;;;;;;0.90;0.90;;;25.30;66.40;;;;;;5087479;27;44375;-71
2022/07/26 02:54:28;;;;;;;1.00;1.00;;;25.20;66.50;;;;;;5087948;27;44267;-70
2022/07/26 02:56:56;;;;;;;1.00;1.00;;;25.20;66.60;;;;;;5087310;27;43942;-69
2022/07/26 02:59:24;;;;;;;1.00;1.00;;;25.20;66.70;;;;;;5087678;27;43861;-69
2022/07/26 03:01:52;;;;;;;0.98;0.98;;;25.20;66.90;;;;;;5086994;27;43929;-70
2022/07/26 03:04:21;;;;;;;0.98;0.98;;;25.20;67.50;;;;;;5087032;27;44062;-69
2022/07/26 03:06:49;;;;;;;0.90;0.90;;;25.20;67.40;;;;;;5087186;27;43925;-69
2022/07/26 03:09:17;;;;;;;0.90;0.90;;;25.30;67.10;;;;;;5087731;27;43980;-70
2022/07/26 03:11:45;;;;;;;1.00;1.00;;;25.50;66.60;;;;;;5087054;27;43552;-70
2022/07/26 03:14:13;;;;;;;0.95;0.95;;;25.60;66.00;;;;;;5087186;27;44485;-71
2022/07/26 03:16:41;;;;;;;1.10;1.10;;;25.90;65.30;;;;;;5088603;27;43770;-70
2022/07/26 03:19:09;;;;;;;1.17;1.08;;;26.00;64.70;;;;;;5086122;27;44008;-69
2022/07/26 03:21:38;;;;;;;1.08;1.08;;;26.20;64.30;;;;;;5109873;27;43697;-70
2022/07/26 03:24:06;;;;;;;1.00;1.00;;;26.30;63.70;;;;;;5110178;27;43372;-70
2022/07/26 03:26:35;;;;;;;1.10;1.10;;;26.50;64.20;;;;;;5110374;27;44097;-70
2022/07/26 03:29:03;;;;;;;1.00;1.00;;;26.50;63.00;;;;;;5092130;27;44249;-70
2022/07/26 03:31:31;;;;;;;0.85;0.85;;;26.60;62.90;;;;;;5110589;27;43912;-70
2022/07/26 03:33:59;;;;;;;0.95;0.95;;;26.60;62.80;;;;;;5110611;27;43969;-69
2022/07/26 03:36:30;;;;;;;0.90;0.90;;;26.40;62.70;;;;;;5110457;27;43950;-71
2022/07/26 03:38:59;;;;;;;1.02;1.02;;;26.30;63.30;;;;;;5110798;27;44047;-69
2022/07/26 03:41:30;;;;;;;1.30;1.30;;;26.10;63.50;;;;;;5109759;27;43948;-70
2022/07/26 03:43:58;;;;;;;1.00;1.00;;;25.90;64.40;;;;;;5109897;27;43960;-69
2022/07/26 03:46:26;;;;;;;0.90;0.90;;;25.70;65.10;;;;;;5091505;27;43389;-70
2022/07/26 03:48:54;;;;;;;1.10;1.10;;;25.60;65.40;;;;;;5110349;27;44062;-70
2022/07/26 03:51:22;;;;;;;0.93;0.93;;;25.50;65.70;;;;;;5109566;27;43827;-70
2022/07/26 03:53:50;;;;;;;0.90;0.90;;;25.40;65.80;;;;;;5109767;27;44086;-70
2022/07/26 03:56:28;;;;;;;1.00;1.00;;;25.30;66.00;;;;;;5110022;27;43378;-70
2022/07/26 03:58:56;;;;;;;1.20;1.20;;;25.30;66.30;;;;;;5110180;27;43426;-69
2022/07/26 04:01:24;;;;;;;0.90;0.90;;;25.30;66.80;;;;;;5074735;27;45773;-69
2022/07/26 04:03:52;;;;;;;1.03;1.00;;;25.20;67.00;;;;;;5090052;27;43994;-71
2022/07/26 04:06:20;;;;;;;0.98;0.98;;;25.30;67.00;;;;;;5100037;27;43285;-70
2022/07/26 04:08:50;;;;;;;1.10;1.10;;;25.40;66.50;;;;;;5110192;27;43453;-71
2022/07/26 04:11:19;;;;;;;1.00;1.00;;;25.50;66.20;;;;;;5109622;27;44729;-69
2022/07/26 04:13:47;;;;;;;1.10;1.10;;;25.60;65.90;;;;;;5109352;27;44035;-70
2022/07/26 04:16:15;;;;;;;1.25;1.20;;;25.80;64.30;;;;;;5109868;27;43995;-69
2022/07/26 04:18:43;;;;;;;3.08;1.10;;;25.80;62.10;;;;;;5110030;27;43915;-69
2022/07/26 04:21:11;;;;;;;1.27;1.20;;;25.90;61.10;;;;;;5109402;27;44974;-69
2022/07/26 04:23:39;;;;;;;1.30;1.20;;;26.00;61.00;;;;;;5109551;27;44078;-69
2022/07/26 04:26:07;;;;;;;1.30;1.20;;;26.10;61.70;;;;;;5109643;27;43400;-70
2022/07/26 04:28:36;;;;;;;1.13;1.13;;;26.20;61.40;;;;;;5108886;27;43958;-70
2022/07/26 04:31:04;;;;;;;1.30;1.30;;;26.30;62.10;;;;;;5109700;27;43920;-69
2022/07/26 04:33:33;;;;;;;1.30;1.20;;;26.30;61.10;;;;;;5106538;27;43963;-69
2022/07/26 04:36:01;;;;;;;1.40;1.30;;;26.30;61.30;;;;;;5100798;27;44001;-70
2022/07/26 04:38:28;;;;;;;1.10;1.10;;;26.30;61.50;;;;;;5110260;27;43780;-70
2022/07/26 04:40:56;;;;;;;0.98;0.98;;;26.10;62.00;;;;;;5107394;27;45058;-70
2022/07/26 04:43:24;;;;;;;1.13;1.13;;;25.90;62.10;;;;;;5088821;28;43532;-69
2022/07/26 04:45:56;;;;;;;1.65;1.33;;;25.70;62.40;;;;;;5089003;28;43862;-70
2022/07/26 04:48:24;;;;;;;1.10;1.10;;;25.60;63.20;;;;;;5071635;28;43916;-69
2022/07/26 04:50:52;;;;;;;1.10;1.10;;;25.50;63.90;;;;;;5068803;28;43918;-70
2022/07/26 04:53:20;;;;;;;1.35;1.25;;;25.40;64.10;;;;;;5068771;28;43833;-69
2022/07/26 04:55:48;;;;;;;1.20;1.20;;;25.30;64.40;;;;;;5080253;28;43955;-71
2022/07/26 04:58:16;;;;;;;1.00;1.00;;;25.20;64.60;;;;;;5084514;28;43826;-71
2022/07/26 05:00:46;;;;;;;1.10;1.10;;;25.20;64.90;;;;;;5068949;28;44038;-70
2022/07/26 05:03:36;;;;;;;1.00;1.00;;;25.20;65.20;;;;;;5068964;28;44070;-70
2022/07/26 05:06:04;;;;;;;1.20;1.20;;;25.10;65.40;;;;;;5068582;28;43947;-70
2022/07/26 05:08:32;;;;;;;1.30;1.20;;;25.10;65.50;;;;;;5069356;28;43467;-69
2022/07/26 05:11:00;;;;;;;1.00;1.00;;;25.00;65.90;;;;;;5068830;28;45172;-70
2022/07/26 05:13:28;;;;;;;1.20;1.20;;;25.10;66.40;;;;;;5069122;28;43874;-68
2022/07/26 05:15:58;;;;;;;1.20;1.20;;;25.10;66.30;;;;;;5070015;28;44028;-70
2022/07/26 05:18:28;;;;;;;1.00;1.00;;;25.20;66.20;;;;;;5088247;28;44062;-71
2022/07/26 05:21:00;;;;;;;1.10;1.10;;;25.30;65.80;;;;;;5088286;28;45330;-70
2022/07/26 05:23:28;;;;;;;1.17;1.17;;;25.50;65.30;;;;;;5088350;28;43911;-70
2022/07/26 05:25:56;;;;;;;1.20;1.20;;;25.70;64.70;;;;;;5088212;28;43936;-71
2022/07/26 05:28:24;;;;;;;1.10;1.10;;;25.90;64.20;;;;;;5088304;28;43395;-70
2022/07/26 05:30:52;;;;;;;1.15;1.15;;;26.00;63.30;;;;;;5087572;28;43882;-70
2022/07/26 05:33:20;;;;;;;1.10;1.10;;;26.10;62.80;;;;;;5085534;28;43947;-70
2022/07/26 05:35:48;;;;;;;1.00;1.00;;;26.30;62.60;;;;;;5068412;28;43967;-69
2022/07/26 05:38:17;;;;;;;1.40;1.30;;;26.30;62.10;;;;;;5068624;28;43318;-69
2022/07/26 05:40:45;;;;;;;1.10;1.10;;;26.30;61.90;;;;;;5049090;28;44228;-69
2022/07/26 05:43:18;;;;;;;1.10;1.10;;;26.40;61.80;;;;;;5088667;27;43947;-69
2022/07/26 05:45:45;;;;;;;1.25;1.25;;;26.40;61.40;;;;;;5091802;27;43901;-70
2022/07/26 05:48:14;;;;;;;1.20;1.20;;;26.40;61.40;;;;;;5108719;27;44070;-70
2022/07/26 05:50:42;;;;;;;1.10;1.10;;;26.20;61.70;;;;;;5094717;27;43907;-70
2022/07/26 05:53:09;;;;;;;1.23;1.23;;;26.00;62.40;;;;;;5108075;27;43897;-70
2022/07/26 05:55:39;;;;;;;1.20;1.20;;;25.90;62.70;;;;;;5107971;27;43398;-70
2022/07/26 05:58:07;;;;;;;1.15;1.15;;;25.70;63.30;;;;;;5108538;27;43832;-71
2022/07/26 06:00:35;;;;;;;1.15;1.15;;;25.50;63.30;;;;;;5101313;27;43932;-70
2022/07/26 06:03:20;;;;;;;1.45;1.30;;;25.50;63.50;;;;;;5108121;27;44001;-70
2022/07/26 06:05:48;;;;;;;1.30;1.30;;;25.30;63.50;;;;;;5107964;27;44078;-70
2022/07/26 06:08:17;;;;;;;1.25;1.25;;;25.30;63.80;;;;;;5108146;27;43976;-70
2022/07/26 06:10:46;;;;;;;1.25;1.25;;;25.20;64.60;;;;;;5107578;27;44730;-69
2022/07/26 06:13:15;;;;;;;1.40;1.40;;;25.10;64.00;;;;;;5095233;27;43976;-70
2022/07/26 06:15:43;;;;;;;1.30;1.30;;;25.10;64.10;;;;;;5088032;27;43885;-69
2022/07/26 06:18:11;;;;;;;1.50;1.40;;;25.10;64.10;;;;;;5088525;27;43947;-69
2022/07/26 06:20:39;;;;;;;1.85;1.40;;;25.10;64.30;;;;;;5087926;27;44006;-69
2022/07/26 06:23:07;;;;;;;1.40;1.40;;;25.10;64.40;;;;;;5087337;27;43802;-69
2022/07/26 06:25:35;;;;;;;1.40;1.30;;;25.00;64.50;;;;;;5087494;27;43390;-69
2022/07/26 06:28:06;;;;;;;1.43;1.43;;;25.10;64.70;;;;;;5088425;27;44389;-69
2022/07/26 06:30:34;;;;;;;1.50;1.50;;;25.10;65.00;;;;;;5080964;27;43940;-70
2022/07/26 06:33:02;;;;;;;1.40;1.30;;;25.20;65.20;;;;;;5081089;27;44048;-71
2022/07/26 06:35:31;;;;;;;1.20;1.20;;;25.30;63.60;;;;;;5080231;27;43497;-70
2022/07/26 06:37:59;;;;;;;1.35;1.35;;;25.50;62.90;;;;;;5081722;27;43881;-69
2022/07/26 06:40:27;;;;;;;1.23;1.23;;;25.70;62.40;;;;;;5087719;27;43900;-69
2022/07/26 06:42:55;;;;;;;1.52;1.42;;;25.80;61.80;;;;;;5080820;27;44115;-69
2022/07/26 06:45:31;;;;;;;1.42;1.42;;;26.00;61.70;;;;;;5082165;27;44011;-71
2022/07/26 06:47:59;;;;;;;1.30;1.30;;;26.00;61.30;;;;;;5102719;27;43958;-69
2022/07/26 06:50:27;;;;;;;1.35;1.35;;;26.10;61.00;;;;;;5107083;27;44477;-70
2022/07/26 06:52:55;;;;;;;1.30;1.30;;;26.20;60.90;;;;;;5106100;27;44067;-70
2022/07/26 06:55:24;;;;;;;1.30;1.30;;;26.20;60.70;;;;;;5107342;27;44019;-70
2022/07/26 06:57:51;;;;;;;1.30;1.30;;;26.20;60.70;;;;;;5106943;27;43987;-70
2022/07/26 07:00:19;;;;;;;1.50;1.40;;;26.10;60.70;;;;;;5105307;27;43948;-70
2022/07/26 07:02:49;;;;;;;1.50;1.20;;;26.00;61.30;;;;;;5086957;27;44085;-69
2022/07/26 07:05:17;;;;;;;1.40;1.40;;;25.80;61.70;;;;;;5095593;27;43951;-69
2022/07/26 07:07:45;;;;;;;1.20;1.20;;;25.70;62.40;;;;;;5107456;27;43994;-70
2022/07/26 07:10:14;;;;;;;1.20;1.20;;;25.50;62.40;;;;;;5106961;27;43930;-70
2022/07/26 07:12:43;;;;;;;1.30;1.20;;;25.40;62.60;;;;;;5105945;27;43930;-70
2022/07/26 07:15:11;;;;;;;1.20;1.20;;;25.30;62.80;;;;;;5106998;27;43343;-70
2022/07/26 07:17:39;;;;;;;1.10;1.10;;;25.20;63.10;;;;;;5088652;27;43908;-70
2022/07/26 07:20:10;;;;;;;2.17;1.30;;;25.10;63.30;;;;;;5106844;27;45147;-69
2022/07/26 07:22:38;;;;;;;1.13;1.13;;;25.10;63.50;;;;;;5106682;27;43993;-69
2022/07/26 07:25:06;;;;;;;3.03;1.67;;;25.10;63.70;;;;;;5106629;27;43369;-70
2022/07/26 07:27:35;;;;;;;1.27;1.27;;;25.00;63.70;;;;;;5098532;27;43979;-71
2022/07/26 07:30:03;;;;;;;1.10;1.10;;;25.00;63.80;;;;;;5096232;27;43940;-70
2022/07/26 07:32:32;;;;;;;1.50;1.40;;;25.00;63.80;;;;;;5106775;27;43936;-70
2022/07/26 07:35:01;;;;;;;1.20;1.20;;;25.00;64.50;;;;;;5106766;27;43462;-69
2022/07/26 07:37:33;;;;;;;1.47;1.37;;;25.00;64.00;;;;;;5107368;27;43519;-70
2022/07/26 07:40:20;;;;;;;1.50;1.40;;;25.00;64.60;;;;;;5106379;27;43954;-70
2022/07/26 07:42:49;;;;;;;1.30;1.30;;;25.00;64.60;;;;;;5106272;27;43975;-70
2022/07/26 07:45:17;;;;;;;1.20;1.20;;;25.10;64.20;;;;;;5106794;27;43349;-70
2022/07/26 07:47:45;;;;;;;1.40;1.40;;;25.20;63.30;;;;;;5107004;27;43940;-70
2022/07/26 07:50:13;;;;;;;1.40;1.30;;;25.40;62.40;;;;;;5106349;27;44071;-71
2022/07/26 07:52:42;;;;;;;1.50;1.40;;;25.50;62.00;;;;;;5106433;27;43935;-70
2022/07/26 07:55:10;;;;;;;1.30;1.30;;;25.60;61.40;;;;;;5106165;27;44010;-69
2022/07/26 07:57:58;;;;;;;1.27;1.27;;;25.70;61.30;;;;;;5107066;27;43899;-70
2022/07/26 08:00:26;;;;;;;1.20;1.20;;;25.80;60.70;;;;;;5097688;27;43903;-70
2022/07/26 08:02:54;;;;;;;1.20;1.20;;;25.90;60.70;;;;;;5086775;27;43874;-70
2022/07/26 08:05:22;;;;;;;1.40;1.30;;;25.90;60.40;;;;;;5098834;27;43937;-71
2022/07/26 08:07:53;;;;;;;1.55;1.48;;;26.00;60.20;;;;;;5110297;27;43978;-70
2022/07/26 08:10:21;;;;;;;1.50;1.50;;;25.90;60.20;;;;;;5109292;27;43786;-71
2022/07/26 08:12:49;;;;;;;1.77;1.67;;;25.90;60.40;;;;;;5109727;27;43518;-70
2022/07/26 08:15:18;;;;;;;1.40;1.40;;;25.70;60.90;;;;;;5109954;27;43950;-70
2022/07/26 08:17:48;;;;;;;1.43;1.33;;;25.60;61.40;;;;;;5075347;27;43509;-70
2022/07/26 08:20:21;;;;;;;1.30;1.30;;;25.50;61.70;;;;;;5089816;27;44118;-69
2022/07/26 08:22:53;;;;;;;1.50;1.43;;;25.30;61.80;;;;;;5089778;27;43853;-70
2022/07/26 08:25:21;;;;;;;1.38;1.38;;;25.20;61.90;;;;;;5089684;27;43944;-70
2022/07/26 08:27:49;;;;;;;1.50;1.40;;;25.10;62.10;;;;;;5071775;28;43407;-70
2022/07/26 08:30:30;;;;;;;1.20;1.20;;;25.10;62.30;;;;;;5090215;27;43974;-70
2022/07/26 08:32:58;;;;;;;1.40;1.30;;;25.00;62.40;;;;;;5102332;27;43406;-70
2022/07/26 08:35:28;;;;;;;1.30;1.30;;;25.00;62.40;;;;;;5109077;27;43908;-69
2022/07/26 08:37:57;;;;;;;1.37;1.37;;;25.00;62.50;;;;;;5109657;27;43972;-70
2022/07/26 08:40:25;;;;;;;1.40;1.40;;;24.90;62.70;;;;;;5095853;27;43961;-70
2022/07/26 08:42:55;;;;;;;2.17;1.50;;;24.90;62.90;;;;;;5109252;27;43331;-71
2022/07/26 08:45:23;;;;;;;3.23;1.33;;;24.90;63.10;;;;;;5082616;27;43432;-70
2022/07/26 08:47:51;;;;;;;1.37;1.30;;;25.00;63.10;;;;;;5083497;27;44029;-71
2022/07/26 08:50:39;;;;;;;1.20;1.20;;;25.00;62.70;;;;;;5085718;27;43866;-70
2022/07/26 08:53:10;;;;;;;1.70;1.60;;;25.20;62.00;;;;;;5089432;27;44006;-70
2022/07/26 08:55:38;;;;;;;1.37;1.30;;;25.30;61.30;;;;;;5106096;27;44003;-70
2022/07/26 08:58:26;;;;;;;1.57;1.50;;;25.40;60.80;;;;;;5109105;27;43427;-69
2022/07/26 09:01:06;;;;;;;1.30;1.20;;;25.60;60.40;;;;;;5108941;27;44829;-71
2022/07/26 09:03:36;;;;;;;1.20;1.20;;;25.70;60.20;;;;;;5094569;27;43940;-69
2022/07/26 09:06:12;;;;;;;2.23;1.40;;;25.80;59.90;;;;;;5070773;27;43927;-70
2022/07/26 09:08:41;;;;;;;1.20;1.20;;;25.80;59.80;;;;;;5077936;27;43883;-70
2022/07/26 09:11:29;;;;;;;1.30;1.30;;;25.90;59.60;;;;;;5104304;27;43936;-71
2022/07/26 09:13:58;;;;;;;1.45;1.35;;;25.90;59.20;;;;;;5108069;27;43897;-70
2022/07/26 09:16:26;;;;;;;1.10;1.10;;;25.90;59.30;;;;;;5089902;27;44012;-70
2022/07/26 09:18:54;;;;;;;1.20;1.20;;;25.90;59.30;;;;;;5109231;27;44034;-70
2022/07/26 09:21:29;;;;;;;1.53;1.50;;;25.90;59.60;;;;;;5103227;27;44114;-70
2022/07/26 09:23:59;;;;;;;1.43;1.33;;;25.70;60.20;;;;;;5088687;27;44018;-70
2022/07/26 09:26:27;;;;;;;1.85;1.20;;;25.50;60.40;;;;;;5088509;27;43890;-70
2022/07/26 09:29:03;;;;;;;1.33;1.33;;;25.40;60.60;;;;;;5082739;27;44011;-70
2022/07/26 09:31:31;;;;;;;1.23;1.23;;;25.30;60.80;;;;;;5096433;27;43991;-69
2022/07/26 09:33:59;;;;;;;1.30;1.30;;;25.10;61.00;;;;;;5108431;27;44076;-71
2022/07/26 09:36:28;;;;;;;1.40;1.33;;;25.10;61.20;;;;;;5107649;27;43996;-69
2022/07/26 09:38:57;;;;;;;1.33;1.33;;;25.00;61.30;;;;;;5089785;27;43996;-70
2022/07/26 09:41:27;;;;;;;1.20;1.20;;;25.00;61.50;;;;;;5107691;27;43912;-71
2022/07/26 09:43:58;;;;;;;1.40;1.40;;;25.00;61.60;;;;;;5108265;27;43975;-71
2022/07/26 09:46:26;;;;;;;1.20;1.20;;;24.90;61.50;;;;;;5106280;27;43866;-70
2022/07/26 09:48:55;;;;;;;1.40;1.40;;;24.90;61.60;;;;;;5104182;27;43989;-70
2022/07/26 09:51:40;;;;;;;1.30;1.30;;;24.80;61.70;;;;;;5108158;27;43862;-70
2022/07/26 09:54:08;;;;;;;1.80;1.70;;;24.80;62.00;;;;;;5107920;27;44041;-70
2022/07/26 09:56:46;;;;;;;1.30;1.30;;;24.80;62.50;;;;;;5090332;27;43315;-70
2022/07/26 09:59:15;;;;;;;2.07;1.60;;;24.90;62.40;;;;;;5089127;27;44352;-70
2022/07/26 10:01:43;;;;;;;1.37;1.27;;;25.10;61.50;;;;;;5088364;27;43971;-69
2022/07/26 10:04:11;;;;;;;1.30;1.20;;;25.30;60.90;;;;;;5088039;27;44054;-70
2022/07/26 10:06:40;;;;;;;0.97;0.90;;;25.50;60.30;;;;;;5095020;27;43998;-71
2022/07/26 10:09:08;;;;;;;1.20;1.20;;;25.60;59.80;;;;;;5088819;27;44397;-70
2022/07/26 10:11:40;;;;;;;1.13;1.13;;;25.80;59.40;;;;;;5088228;27;44707;-69
2022/07/26 10:14:38;;;;;;;1.13;1.13;;;25.90;58.90;;;;;;5081318;27;43679;-69
2022/07/26 10:17:40;;;;;;;1.25;1.25;;;26.10;58.70;;;;;;5088290;27;43345;-70
2022/07/26 10:20:09;;;;;;;1.00;1.00;;;26.20;58.30;;;;;;5044614;27;44063;-69
2022/07/26 10:22:51;;;;;;;1.52;1.42;;;26.20;58.20;;;;;;5105074;27;44053;-70
2022/07/26 10:25:44;;;;;;;3.83;1.40;;;26.20;58.20;;;;;;5088436;27;43911;-70
2022/07/26 10:28:23;;;;;;;1.05;1.05;;;26.30;58.30;;;;;;5107626;27;43757;-68
2022/07/26 10:30:53;;;;;;;1.20;1.20;;;26.30;57.50;;;;;;5108016;27;43973;-71
2022/07/26 10:33:22;;;;;;;1.48;1.48;;;26.30;57.60;;;;;;5088765;27;44596;-70
2022/07/26 10:35:50;;;;;;;1.20;1.10;;;26.30;57.90;;;;;;5107499;27;43828;-70
2022/07/26 10:38:23;;;;;;;1.40;1.30;;;26.30;57.80;;;;;;5107342;27;44038;-70
2022/07/26 10:40:59;;;;;;;1.95;1.35;;;26.30;58.20;;;;;;5107482;27;43443;-69
2022/07/26 10:43:27;;;;;;;1.33;1.30;;;26.10;58.40;;;;;;5107369;27;43852;-70
2022/07/26 10:46:26;;;;;;;1.23;1.20;;;25.90;58.90;;;;;;5107587;27;43974;-71
2022/07/26 10:48:55;;;;;;;1.10;1.10;;;25.70;59.40;;;;;;5107384;27;44005;-70
2022/07/26 10:51:24;;;;;;;1.00;1.00;;;25.60;59.70;;;;;;5107576;27;43925;-71
2022/07/26 10:53:59;;;;;;;1.10;1.10;;;25.40;59.90;;;;;;5107138;27;43932;-69
2022/07/26 10:56:28;;;;;;;1.63;1.10;;;25.30;60.10;;;;;;5106996;27;43900;-69
2022/07/26 10:59:00;;;;;;;1.15;1.15;;;25.20;60.30;;;;;;5090273;27;44022;-70
2022/07/26 11:01:34;;;;;;;1.10;1.10;;;25.10;60.40;;;;;;5088164;27;43968;-70
2022/07/26 11:04:02;;;;;;;1.20;1.10;;;25.10;60.70;;;;;;5069446;28;45267;-71
2022/07/26 11:06:30;;;;;;;1.20;1.20;;;25.00;61.50;;;;;;5087611;27;43992;-69
2022/07/26 11:08:58;;;;;;;1.23;1.20;;;25.00;61.60;;;;;;5092127;27;43786;-70
2022/07/26 11:11:30;;;;;;;1.50;1.40;;;25.00;61.60;;;;;;5090197;27;43455;-70
2022/07/26 11:14:05;;;;;;;1.30;1.30;;;25.00;61.60;;;;;;5087230;27;44031;-70
2022/07/26 11:16:39;;;;;;;1.20;1.20;;;25.00;61.30;;;;;;5087606;27;43931;-70
2022/07/26 11:19:17;;;;;;;1.73;1.17;;;25.20;61.50;;;;;;5087181;27;43921;-69
2022/07/26 11:21:45;;;;;;;1.50;1.23;;;25.30;61.00;;;;;;5094404;27;43926;-71
2022/07/26 11:24:13;;;;;;;1.07;1.07;;;25.50;60.60;;;;;;5088770;27;44731;-70
2022/07/26 11:26:42;;;;;;;1.10;1.10;;;25.60;60.10;;;;;;5106675;27;44014;-69
2022/07/26 11:29:10;;;;;;;1.20;1.20;;;25.70;60.60;;;;;;5106792;27;43993;-70
2022/07/26 11:31:46;;;;;;;1.03;1.03;;;25.80;59.70;;;;;;5107277;27;43962;-69
2022/07/26 11:34:27;;;;;;;1.20;1.20;;;25.80;60.20;;;;;;5095487;27;43611;-70
2022/07/26 11:36:56;;;;;;;2.53;1.35;;;25.90;59.50;;;;;;5087274;27;43923;-69
2022/07/26 11:39:25;;;;;;;1.05;1.05;;;25.90;59.30;;;;;;5090653;27;43996;-70
2022/07/26 11:41:56;;;;;;;1.10;1.10;;;26.00;59.30;;;;;;5072332;28;43937;-69
2022/07/26 11:44:24;;;;;;;0.90;0.90;;;26.00;59.20;;;;;;5109523;27;44001;-70
2022/07/26 11:46:56;;;;;;;1.10;1.10;;;25.90;59.00;;;;;;5109796;27;43848;-70
2022/07/26 11:49:25;;;;;;;1.10;1.10;;;25.80;59.00;;;;;;5110054;27;44046;-69
2022/07/26 11:52:13;;;;;;;1.25;1.23;;;25.60;59.80;;;;;;5110402;27;43946;-69
2022/07/26 11:54:45;;;;;;;1.00;1.00;;;25.50;60.40;;;;;;5108126;27;43718;-71
2022/07/26 11:57:13;;;;;;;1.10;1.10;;;25.30;60.90;;;;;;5090174;27;44015;-69
2022/07/26 11:59:41;;;;;;;1.13;1.13;;;25.20;61.20;;;;;;5090268;27;44081;-70
2022/07/26 12:02:12;;;;;;;1.00;1.00;;;25.20;61.00;;;;;;5099649;27;44063;-70
2022/07/26 12:04:41;;;;;;;1.10;1.10;;;25.10;61.70;;;;;;5109906;27;43968;-69
2022/07/26 12:07:09;;;;;;;1.10;1.10;;;25.00;61.90;;;;;;5109532;27;44062;-70
2022/07/26 12:09:38;;;;;;;1.10;1.10;;;25.00;62.20;;;;;;5109859;27;43807;-70
2022/07/26 12:12:07;;;;;;;1.27;1.10;;;24.90;62.30;;;;;;5110692;27;44452;-71
2022/07/26 12:14:36;;;;;;;1.10;1.10;;;24.90;62.40;;;;;;5109923;27;43923;-70
2022/07/26 12:17:13;;;;;;;1.20;1.20;;;24.90;62.50;;;;;;5087420;28;45154;-69
2022/07/26 12:19:41;;;;;;;1.10;1.00;;;24.80;62.60;;;;;;5090003;27;43998;-70
2022/07/26 12:22:10;;;;;;;1.30;1.30;;;24.80;62.70;;;;;;5090522;27;43961;-70
2022/07/26 12:24:42;;;;;;;1.30;1.30;;;24.80;62.80;;;;;;5089834;27;43965;-70
2022/07/26 12:27:12;;;;;;;1.30;1.30;;;24.80;63.40;;;;;;5089894;27;44015;-70
2022/07/26 12:29:40;;;;;;;1.20;1.20;;;24.80;64.00;;;;;;5090011;27;43844;-70
2022/07/26 12:32:10;;;;;;;1.20;1.20;;;24.80;63.90;;;;;;5071580;28;43629;-71
2022/07/26 12:34:41;;;;;;;1.40;1.30;;;24.90;63.30;;;;;;5089521;27;43948;-71
2022/07/26 12:37:11;;;;;;;1.20;1.20;;;25.00;62.70;;;;;;5082645;27;44028;-68
2022/07/26 12:39:39;;;;;;;1.90;1.40;;;25.20;62.20;;;;;;5083437;27;43452;-70
2022/07/26 12:42:27;;;;;;;1.20;1.20;;;25.40;61.50;;;;;;5083387;27;43932;-70
2022/07/26 12:45:01;;;;;;;1.10;1.10;;;25.50;60.90;;;;;;5087104;27;44012;-70
2022/07/26 12:47:29;;;;;;;1.55;1.10;;;25.60;60.70;;;;;;5089539;27;44010;-70
2022/07/26 12:50:00;;;;;;;1.33;1.33;;;25.70;60.40;;;;;;5088883;27;44023;-70
2022/07/26 12:52:28;;;;;;;1.85;1.75;;;25.80;60.90;;;;;;5089986;27;43316;-70
2022/07/26 12:54:56;;;;;;;1.30;1.30;;;25.90;59.80;;;;;;5089521;27;43945;-69
2022/07/26 12:57:24;;;;;;;1.33;1.33;;;25.80;59.60;;;;;;5070933;28;45383;-70
2022/07/26 12:59:52;;;;;;;1.57;1.50;;;25.70;60.00;;;;;;5106425;27;44127;-69
2022/07/26 13:02:20;;;;;;;1.30;1.30;;;25.60;60.70;;;;;;5109538;27;43966;-70